Time;durP1;ratioP1;P1;durP2;ratioP2;P2;SDS_P1;SDS_P2;PMS_P1;PMS_P2;Temp;Humidity;BMP_temperature;BMP_pressure;BME280_temperature;BME280_humidity;BME280_pressure;Samples;Min_cycle;Max_cycle;Signal;HPM_P1;HPM_P2
2023/01/16 00:00:54;;;;;;;3.00;2.80;;;5.70;99.90;;;;;;5012857;28;20204;-53
2023/01/16 00:03:21;;;;;;;3.70;3.10;;;5.40;99.90;;;;;;5013570;28;20223;-54
2023/01/16 00:05:47;;;;;;;3.40;3.10;;;5.20;99.90;;;;;;5012952;28;20184;-53
2023/01/16 00:08:13;;;;;;;3.50;3.20;;;5.40;99.90;;;;;;5014042;28;20180;-52
2023/01/16 00:10:39;;;;;;;3.60;3.30;;;5.40;99.90;;;;;;5013640;28;20203;-54
2023/01/16 00:13:04;;;;;;;4.00;3.60;;;5.60;99.90;;;;;;5012241;28;20250;-54
2023/01/16 00:15:30;;;;;;;3.43;3.13;;;5.70;99.90;;;;;;5013500;28;20181;-57
2023/01/16 00:17:56;;;;;;;3.50;3.20;;;5.90;99.90;;;;;;5013029;28;20171;-53
2023/01/16 00:20:22;;;;;;;3.80;3.37;;;5.90;99.90;;;;;;5013677;28;20188;-53
2023/01/16 00:22:48;;;;;;;4.23;3.13;;;5.90;99.90;;;;;;5013269;28;20193;-56
2023/01/16 00:25:13;;;;;;;4.07;3.30;;;5.90;99.90;;;;;;5013205;28;20172;-54
2023/01/16 00:27:39;;;;;;;3.07;2.80;;;6.00;99.90;;;;;;5011977;28;20176;-54
2023/01/16 00:30:06;;;;;;;3.60;3.30;;;6.00;99.90;;;;;;5013639;28;20234;-55
2023/01/16 00:32:32;;;;;;;3.40;3.10;;;6.00;99.90;;;;;;5012490;28;20553;-55
2023/01/16 00:34:57;;;;;;;3.37;3.03;;;6.00;99.90;;;;;;5012763;28;20175;-56
2023/01/16 00:37:23;;;;;;;4.53;2.93;;;6.00;99.90;;;;;;5013421;28;20184;-53
2023/01/16 00:39:48;;;;;;;2.77;2.57;;;6.00;99.90;;;;;;5012691;28;20182;-50
2023/01/16 00:42:14;;;;;;;1.63;1.53;;;5.90;99.90;;;;;;5012847;28;20200;-52
2023/01/16 00:44:40;;;;;;;2.63;2.40;;;5.10;99.90;;;;;;5012095;28;20259;-55
2023/01/16 00:47:06;;;;;;;3.40;2.67;;;5.50;99.90;;;;;;5012907;28;20200;-53
2023/01/16 00:49:32;;;;;;;2.90;2.70;;;5.60;99.90;;;;;;5011835;28;20177;-52
2023/01/16 00:51:58;;;;;;;2.93;2.33;;;5.60;99.90;;;;;;5011889;28;20193;-56
2023/01/16 00:54:23;;;;;;;2.30;2.10;;;5.70;99.90;;;;;;5012583;28;20204;-52
2023/01/16 00:56:50;;;;;;;2.30;2.10;;;5.70;99.90;;;;;;5012501;28;20173;-52
2023/01/16 00:59:15;;;;;;;2.50;2.30;;;5.70;99.90;;;;;;5013090;28;20176;-54
2023/01/16 01:01:41;;;;;;;2.30;2.10;;;5.80;99.90;;;;;;5012592;28;20743;-52
2023/01/16 01:04:06;;;;;;;2.50;2.30;;;5.80;99.90;;;;;;5012513;28;20177;-54
2023/01/16 01:06:32;;;;;;;2.87;1.93;;;5.70;99.90;;;;;;5011885;28;20200;-52
2023/01/16 01:08:58;;;;;;;3.97;3.20;;;5.70;99.90;;;;;;5012252;28;20177;-54
2023/01/16 01:11:24;;;;;;;5.03;3.67;;;5.80;99.90;;;;;;5012040;28;20680;-55
2023/01/16 01:13:49;;;;;;;4.77;3.00;;;5.70;99.90;;;;;;5012347;28;20658;-53
2023/01/16 01:16:15;;;;;;;3.70;3.10;;;5.70;99.90;;;;;;5012635;28;20657;-53
2023/01/16 01:18:41;;;;;;;6.70;3.97;;;5.70;99.90;;;;;;5012359;28;20223;-51
2023/01/16 01:21:07;;;;;;;5.70;3.63;;;5.70;99.90;;;;;;5012625;28;20254;-52
2023/01/16 01:23:33;;;;;;;4.57;2.93;;;5.80;99.90;;;;;;5011726;28;20195;-58
2023/01/16 01:26:06;;;;;;;4.83;3.50;;;5.80;99.90;;;;;;5012264;28;20172;-54
2023/01/16 01:28:32;;;;;;;4.17;3.10;;;5.80;99.90;;;;;;5011678;28;20172;-52
2023/01/16 01:31:05;;;;;;;3.80;2.83;;;5.80;99.90;;;;;;5012648;28;20200;-54
2023/01/16 01:33:30;;;;;;;4.07;2.83;;;5.80;99.90;;;;;;5011224;28;20227;-53
2023/01/16 01:35:56;;;;;;;2.90;2.60;;;5.70;99.90;;;;;;5012146;28;20204;-54
2023/01/16 01:38:21;;;;;;;3.00;2.30;;;5.70;99.90;;;;;;5012201;28;20176;-55
2023/01/16 01:40:47;;;;;;;2.33;1.93;;;5.70;99.90;;;;;;5011946;28;20214;-52
2023/01/16 01:43:14;;;;;;;2.00;1.90;;;5.70;99.90;;;;;;5012115;28;20633;-53
2023/01/16 01:45:43;;;;;;;2.20;2.00;;;5.70;99.90;;;;;;5011407;28;20243;-54
2023/01/16 01:48:11;;;;;;;3.40;2.60;;;5.70;99.90;;;;;;5012082;28;20183;-51
2023/01/16 01:50:47;;;;;;;2.27;2.10;;;5.70;99.90;;;;;;5011933;28;20176;-53
2023/01/16 01:53:22;;;;;;;2.40;2.20;;;5.60;99.90;;;;;;5011692;28;20216;-56
2023/01/16 01:55:48;;;;;;;3.47;2.93;;;5.50;99.90;;;;;;5011273;28;20179;-56
2023/01/16 01:58:21;;;;;;;2.60;2.40;;;5.50;99.90;;;;;;5011869;28;20180;-51
2023/01/16 02:00:50;;;;;;;2.87;2.57;;;5.50;99.90;;;;;;5011372;28;20585;-52
2023/01/16 02:03:25;;;;;;;2.83;2.63;;;5.40;99.90;;;;;;5011116;28;20188;-53
2023/01/16 02:05:55;;;;;;;3.33;2.37;;;5.40;99.90;;;;;;5011392;28;20187;-55
2023/01/16 02:08:24;;;;;;;3.00;2.70;;;5.40;99.90;;;;;;5011804;28;20169;-52
2023/01/16 02:11:08;;;;;;;2.70;2.50;;;5.50;99.90;;;;;;5011718;28;20172;-55
2023/01/16 02:13:38;;;;;;;2.27;2.17;;;5.40;99.90;;;;;;5010258;28;20270;-52
2023/01/16 02:22:01;;;;;;;5.17;3.40;;;5.50;99.90;;;;;;5011724;28;20254;-53
2023/01/16 02:24:45;;;;;;;4.03;2.60;;;5.50;99.90;;;;;;5011008;28;20164;-53
2023/01/16 02:27:29;;;;;;;4.13;3.10;;;5.50;99.90;;;;;;5010895;28;20172;-54
2023/01/16 02:30:04;;;;;;;3.17;2.57;;;5.50;99.90;;;;;;5011443;28;20172;-56
2023/01/16 02:32:46;;;;;;;3.43;2.87;;;5.60;99.90;;;;;;5010755;28;20280;-53
2023/01/16 02:35:36;;;;;;;4.67;3.00;;;5.60;99.90;;;;;;5010272;28;20188;-54
2023/01/16 02:38:13;;;;;;;3.10;2.63;;;5.60;99.90;;;;;;5011177;28;20230;-54
2023/01/16 02:40:54;;;;;;;5.37;3.03;;;5.50;99.90;;;;;;5011108;28;20254;-52
2023/01/16 02:43:27;;;;;;;3.00;2.70;;;5.50;99.90;;;;;;5011319;28;20211;-54
2023/01/16 02:46:24;;;;;;;3.00;2.70;;;5.50;99.90;;;;;;5011066;28;20168;-52
2023/01/16 02:49:20;;;;;;;3.57;2.93;;;5.50;99.90;;;;;;5005506;28;20654;-56
2023/01/16 02:52:00;;;;;;;2.77;2.57;;;5.50;99.90;;;;;;5010958;28;20168;-57
2023/01/16 02:54:41;;;;;;;3.30;3.00;;;5.40;99.90;;;;;;5010985;28;20223;-55
2023/01/16 02:57:12;;;;;;;3.00;2.80;;;5.40;99.90;;;;;;5012889;28;20178;-55
2023/01/16 02:59:41;;;;;;;3.73;3.30;;;5.50;99.90;;;;;;5015189;28;20260;-57
2023/01/16 03:02:08;;;;;;;3.70;3.40;;;5.50;99.90;;;;;;5014757;28;20207;-55
2023/01/16 03:04:39;;;;;;;3.57;3.23;;;5.40;99.90;;;;;;5014951;28;20606;-52
2023/01/16 03:07:32;;;;;;;5.47;3.20;;;5.40;99.90;;;;;;5013505;28;20168;-54
2023/01/16 03:10:02;;;;;;;3.40;3.10;;;5.40;99.90;;;;;;5014985;28;20624;-56
2023/01/16 03:12:33;;;;;;;4.00;3.60;;;5.30;99.90;;;;;;5014607;28;20287;-54
2023/01/16 03:15:25;;;;;;;4.33;3.87;;;5.30;99.90;;;;;;5014700;28;20173;-54
2023/01/16 03:18:08;;;;;;;3.77;3.37;;;5.30;99.90;;;;;;5014593;28;20198;-55
2023/01/16 03:20:48;;;;;;;3.40;3.10;;;5.30;99.90;;;;;;5014508;28;20208;-54
2023/01/16 03:23:42;;;;;;;3.50;3.20;;;5.40;99.90;;;;;;5014487;28;20185;-53
2023/01/16 03:26:15;;;;;;;3.83;3.53;;;5.30;99.90;;;;;;5018526;28;20172;-52
2023/01/16 03:29:09;;;;;;;3.93;3.53;;;5.30;99.90;;;;;;5033931;28;20495;-53
2023/01/16 03:31:47;;;;;;;4.13;3.73;;;5.30;99.90;;;;;;5034160;28;20521;-53
2023/01/16 03:34:34;;;;;;;3.77;3.30;;;5.30;99.90;;;;;;5033773;28;20179;-53
2023/01/16 03:37:08;;;;;;;3.20;2.93;;;5.30;99.90;;;;;;5034233;28;20176;-51
2023/01/16 03:39:41;;;;;;;4.27;3.40;;;5.20;99.90;;;;;;5033948;28;20632;-54
2023/01/16 03:42:15;;;;;;;3.07;2.80;;;5.20;99.90;;;;;;5034103;28;20317;-51
2023/01/16 03:44:51;;;;;;;3.43;2.80;;;5.10;99.90;;;;;;5033652;28;20250;-56
2023/01/16 03:47:27;;;;;;;3.50;2.90;;;5.00;99.90;;;;;;5034201;28;20168;-56
2023/01/16 03:49:58;;;;;;;3.47;3.17;;;4.90;99.90;;;;;;5033794;28;20199;-53
2023/01/16 03:52:30;;;;;;;3.77;3.30;;;4.90;99.90;;;;;;5033434;28;20203;-57
2023/01/16 03:55:20;;;;;;;3.30;3.00;;;4.90;99.90;;;;;;5033218;28;20579;-53
2023/01/16 03:57:56;;;;;;;3.60;3.30;;;4.90;99.90;;;;;;5033940;28;20575;-56
2023/01/16 04:00:26;;;;;;;3.20;2.90;;;4.90;99.90;;;;;;5033280;28;20156;-55
2023/01/16 04:03:01;;;;;;;3.43;3.13;;;4.90;99.90;;;;;;5033712;28;20188;-55
2023/01/16 04:05:54;;;;;;;3.70;3.40;;;5.00;99.90;;;;;;5032280;28;20262;-52
2023/01/16 04:08:31;;;;;;;2.87;2.67;;;4.90;99.90;;;;;;5033406;28;20230;-54
2023/01/16 04:10:57;;;;;;;3.27;3.00;;;4.90;99.90;;;;;;5032614;28;20179;-57
2023/01/16 04:13:29;;;;;;;3.33;3.03;;;4.90;99.90;;;;;;5033236;28;20218;-58
2023/01/16 04:15:58;;;;;;;3.83;3.13;;;4.90;99.90;;;;;;5033289;28;20172;-54
2023/01/16 04:18:30;;;;;;;3.40;3.10;;;4.80;99.90;;;;;;5033181;28;20168;-55
2023/01/16 04:20:56;;;;;;;3.80;3.20;;;4.80;99.90;;;;;;5033264;28;20191;-54
2023/01/16 04:23:21;;;;;;;3.60;3.27;;;4.80;99.90;;;;;;5032786;28;20795;-57
2023/01/16 04:25:47;;;;;;;3.40;3.10;;;4.90;99.90;;;;;;5031977;28;20263;-55
2023/01/16 04:28:12;;;;;;;3.33;3.03;;;4.90;99.90;;;;;;5032844;28;20190;-53
2023/01/16 04:30:38;;;;;;;4.30;3.30;;;4.90;99.90;;;;;;5033074;28;20639;-56
2023/01/16 04:33:04;;;;;;;5.07;3.50;;;4.90;99.90;;;;;;5032986;28;20626;-52
2023/01/16 04:35:30;;;;;;;3.20;3.00;;;4.90;99.90;;;;;;5032640;28;20167;-52
2023/01/16 04:37:56;;;;;;;4.70;3.67;;;5.00;99.90;;;;;;5033186;28;20172;-51
2023/01/16 04:40:21;;;;;;;4.60;4.20;;;5.00;99.90;;;;;;5032182;28;20179;-54
2023/01/16 04:42:48;;;;;;;4.27;3.63;;;5.00;99.90;;;;;;5032800;28;20187;-57
2023/01/16 04:45:13;;;;;;;6.00;4.33;;;5.00;99.90;;;;;;5031828;28;20172;-52
2023/01/16 04:47:39;;;;;;;4.00;3.60;;;5.00;99.90;;;;;;5032691;28;20176;-55
2023/01/16 04:50:05;;;;;;;4.70;4.20;;;5.00;99.90;;;;;;5032109;28;20178;-51
2023/01/16 04:52:30;;;;;;;4.13;3.73;;;4.90;99.90;;;;;;5032560;28;20214;-52
2023/01/16 04:54:56;;;;;;;4.80;3.77;;;4.90;99.90;;;;;;5025588;22;20671;-50
2023/01/16 04:57:22;;;;;;;4.23;3.83;;;4.80;99.90;;;;;;4994839;28;20177;-50
2023/01/16 04:59:47;;;;;;;4.37;3.83;;;4.80;99.90;;;;;;4993969;28;20173;-51
2023/01/16 05:02:13;;;;;;;5.10;4.60;;;4.80;99.90;;;;;;4996251;28;20689;-51
2023/01/16 05:04:38;;;;;;;5.27;4.67;;;4.80;99.90;;;;;;4994628;28;20654;-50
2023/01/16 05:07:04;;;;;;;5.13;4.50;;;4.70;99.90;;;;;;4992593;28;20197;-53
2023/01/16 05:09:29;;;;;;;4.97;4.47;;;4.70;99.90;;;;;;4991219;28;20491;-51
2023/01/16 05:11:55;;;;;;;4.13;3.50;;;4.60;99.90;;;;;;4992533;28;20265;-51
2023/01/16 05:14:21;;;;;;;4.93;3.83;;;4.50;99.90;;;;;;4992516;28;20200;-50
2023/01/16 05:16:46;;;;;;;5.00;3.80;;;4.50;99.90;;;;;;4992731;28;20189;-53
2023/01/16 05:19:12;;;;;;;5.30;4.00;;;4.50;99.90;;;;;;4991889;28;20181;-51
2023/01/16 05:21:37;;;;;;;4.43;4.03;;;4.40;99.90;;;;;;4992784;28;20284;-52
2023/01/16 05:24:04;;;;;;;4.13;3.77;;;4.40;99.90;;;;;;4992311;28;20200;-51
2023/01/16 05:26:30;;;;;;;4.73;4.33;;;4.30;99.90;;;;;;4990684;28;20181;-55
2023/01/16 05:28:55;;;;;;;3.63;3.33;;;4.20;99.90;;;;;;4992235;28;20308;-51
2023/01/16 05:31:21;;;;;;;3.80;3.50;;;4.20;99.90;;;;;;4992388;28;20213;-51
2023/01/16 05:33:46;;;;;;;4.93;3.53;;;4.20;99.90;;;;;;4992163;28;20216;-51
2023/01/16 05:36:12;;;;;;;3.83;3.50;;;4.30;99.90;;;;;;4991360;28;20177;-53
2023/01/16 05:38:37;;;;;;;3.83;3.43;;;4.20;99.90;;;;;;4992579;28;20248;-51
2023/01/16 05:41:03;;;;;;;3.90;3.50;;;4.20;99.90;;;;;;4992129;28;20200;-51
2023/01/16 05:43:29;;;;;;;5.80;5.30;;;4.20;99.90;;;;;;4992487;28;20193;-49
2023/01/16 05:45:55;;;;;;;3.87;3.53;;;4.20;99.90;;;;;;4991692;28;20177;-51
2023/01/16 05:48:20;;;;;;;3.87;3.57;;;4.20;99.90;;;;;;4992369;28;20685;-49
2023/01/16 05:50:46;;;;;;;3.70;3.40;;;4.20;99.90;;;;;;4992187;28;20205;-51
2023/01/16 05:53:11;;;;;;;3.40;3.10;;;4.20;99.90;;;;;;4991790;28;20650;-49
2023/01/16 05:55:42;;;;;;;3.73;3.40;;;4.20;99.90;;;;;;4991214;28;20228;-53
2023/01/16 05:58:10;;;;;;;3.50;3.20;;;4.20;99.90;;;;;;4991805;28;20245;-51
2023/01/16 06:00:35;;;;;;;4.23;3.70;;;4.20;99.90;;;;;;4992262;28;20195;-50
2023/01/16 06:03:01;;;;;;;3.97;3.57;;;4.30;99.90;;;;;;4991078;28;20248;-51
2023/01/16 06:05:26;;;;;;;3.37;3.07;;;4.20;99.90;;;;;;4991852;28;20603;-51
2023/01/16 06:07:56;;;;;;;3.83;3.40;;;4.30;99.90;;;;;;4991790;28;20634;-53
2023/01/16 06:10:22;;;;;;;3.73;2.97;;;4.30;99.90;;;;;;4992005;28;20162;-52
2023/01/16 06:12:47;;;;;;;3.87;3.50;;;4.30;99.90;;;;;;4990130;28;20212;-51
2023/01/16 06:15:13;;;;;;;3.90;3.50;;;4.30;99.90;;;;;;4991485;28;20232;-50
2023/01/16 06:17:38;;;;;;;3.77;3.40;;;4.30;99.90;;;;;;4991251;28;20176;-51
2023/01/16 06:20:04;;;;;;;4.40;4.00;;;4.30;99.90;;;;;;4991675;28;20185;-53
2023/01/16 06:22:30;;;;;;;4.20;3.80;;;4.30;99.90;;;;;;4990107;28;20225;-51
2023/01/16 06:24:55;;;;;;;4.20;3.80;;;4.30;99.90;;;;;;4989963;28;20232;-52
2023/01/16 06:27:21;;;;;;;4.00;3.60;;;4.20;99.90;;;;;;4991646;28;20177;-49
2023/01/16 06:29:47;;;;;;;5.33;4.03;;;4.20;99.90;;;;;;4990199;28;20246;-50
2023/01/16 06:32:12;;;;;;;4.47;3.97;;;4.10;99.90;;;;;;4990035;28;20196;-50
2023/01/16 06:34:38;;;;;;;4.83;4.37;;;4.00;99.90;;;;;;4989996;28;20185;-53
2023/01/16 06:37:03;;;;;;;4.90;4.37;;;4.00;99.90;;;;;;4991443;28;20161;-51
2023/01/16 06:39:29;;;;;;;5.50;5.00;;;4.00;99.90;;;;;;4989539;28;20193;-51
2023/01/16 06:41:54;;;;;;;4.30;3.87;;;4.00;99.90;;;;;;4987872;28;20212;-51
2023/01/16 06:44:20;;;;;;;6.83;4.20;;;4.10;99.90;;;;;;4990649;28;20216;-53
2023/01/16 06:46:45;;;;;;;5.17;4.67;;;4.10;99.90;;;;;;4991792;28;20236;-53
2023/01/16 06:49:11;;;;;;;4.60;4.20;;;4.10;99.90;;;;;;4992241;28;20169;-52
2023/01/16 06:51:37;;;;;;;5.33;4.80;;;4.20;99.90;;;;;;4991210;28;20260;-50
2023/01/16 06:54:02;;;;;;;5.87;5.03;;;4.20;99.90;;;;;;4990916;28;20218;-49
2023/01/16 06:56:29;;;;;;;5.73;5.13;;;4.20;99.90;;;;;;4991319;28;20209;-51
2023/01/16 06:58:54;;;;;;;5.70;4.50;;;4.20;99.90;;;;;;4991364;28;20177;-51
2023/01/16 07:01:20;;;;;;;7.17;5.20;;;4.30;99.90;;;;;;4991146;28;20536;-53
2023/01/16 07:03:45;;;;;;;5.43;4.90;;;4.30;99.90;;;;;;4990814;28;20200;-51
2023/01/16 07:06:12;;;;;;;7.10;4.90;;;4.30;99.90;;;;;;4991424;28;20177;-52
2023/01/16 07:08:38;;;;;;;7.13;5.13;;;4.40;99.90;;;;;;4991079;28;20170;-52
2023/01/16 07:11:04;;;;;;;6.03;4.93;;;4.40;99.90;;;;;;4991182;28;20204;-51
2023/01/16 07:13:30;;;;;;;5.70;4.70;;;4.40;99.90;;;;;;4990473;28;20197;-52
2023/01/16 07:24:16;;;;;;;5.37;4.80;;;4.50;99.90;;;;;;4990883;28;20265;-52
2023/01/16 07:26:47;;;;;;;5.80;4.90;;;4.40;99.90;;;;;;4991374;28;20166;-52
2023/01/16 07:29:12;;;;;;;6.57;5.00;;;4.50;99.90;;;;;;4991510;28;20241;-51
2023/01/16 07:31:39;;;;;;;4.70;4.30;;;4.50;99.90;;;;;;4990786;28;20181;-50
2023/01/16 07:34:04;;;;;;;5.30;4.77;;;4.50;99.90;;;;;;4990875;28;20208;-51
2023/01/16 07:36:30;;;;;;;5.77;5.13;;;4.40;99.90;;;;;;4990971;28;20177;-50
2023/01/16 07:38:55;;;;;;;7.57;5.40;;;4.50;99.90;;;;;;4991263;28;20177;-51
2023/01/16 07:41:21;;;;;;;6.67;5.30;;;4.50;99.90;;;;;;4990888;28;20197;-51
2023/01/16 07:43:46;;;;;;;7.17;6.20;;;4.50;99.90;;;;;;4993747;28;20727;-52
2023/01/16 07:46:12;;;;;;;6.57;5.10;;;4.50;99.90;;;;;;4994516;28;20273;-53
2023/01/16 07:48:38;;;;;;;5.67;4.70;;;4.50;99.90;;;;;;4994722;28;20173;-51
2023/01/16 07:51:04;;;;;;;5.17;4.67;;;4.70;99.90;;;;;;4994838;28;20630;-53
2023/01/16 07:53:31;;;;;;;5.47;4.13;;;5.20;99.90;;;;;;4993831;28;20208;-49
2023/01/16 07:55:59;;;;;;;4.67;3.90;;;6.10;99.90;;;;;;4994345;28;20188;-52
2023/01/16 07:58:26;;;;;;;5.37;3.63;;;7.00;99.90;;;;;;4994308;28;20239;-52
2023/01/16 08:00:53;;;;;;;3.83;3.07;;;8.20;99.90;;;;;;4994487;28;20223;-52
2023/01/16 08:03:19;;;;;;;3.10;2.80;;;9.50;99.90;;;;;;4994073;28;20700;-52
2023/01/16 08:05:44;;;;;;;3.97;3.33;;;10.80;99.90;;;;;;4994187;28;20184;-52
2023/01/16 08:08:11;;;;;;;2.90;2.67;;;12.20;99.90;;;;;;4994161;28;20173;-53
2023/01/16 08:10:37;;;;;;;3.73;2.83;;;13.40;99.90;;;;;;4994297;28;20550;-54
2023/01/16 08:13:03;;;;;;;2.80;2.43;;;14.70;96.80;;;;;;4994232;28;20237;-56
2023/01/16 08:15:28;;;;;;;2.57;2.33;;;15.70;95.60;;;;;;4993755;28;20172;-56
2023/01/16 08:17:54;;;;;;;4.53;2.60;;;16.70;93.20;;;;;;4994197;28;20201;-53
2023/01/16 08:20:20;;;;;;;3.50;2.60;;;17.50;91.30;;;;;;4993827;28;20256;-55
2023/01/16 08:22:49;;;;;;;2.90;2.43;;;18.90;89.80;;;;;;4994120;28;20205;-56
2023/01/16 08:25:16;;;;;;;2.40;2.20;;;19.10;86.00;;;;;;4993234;28;20203;-53
2023/01/16 08:27:42;;;;;;;2.55;2.35;;;19.80;83.20;;;;;;4993848;28;20674;-52
2023/01/16 08:30:08;;;;;;;2.67;2.17;;;20.80;77.80;;;;;;4993677;28;20182;-54
2023/01/16 08:32:34;;;;;;;3.95;2.00;;;21.20;77.20;;;;;;4993893;28;20181;-56
2023/01/16 08:35:02;;;;;;;3.25;2.10;;;22.10;74.50;;;;;;4993557;28;20193;-53
2023/01/16 08:37:27;;;;;;;2.10;2.00;;;22.50;69.80;;;;;;4993398;28;20257;-55
2023/01/16 08:39:53;;;;;;;2.40;2.20;;;23.40;66.40;;;;;;4993540;28;20240;-52
2023/01/16 08:53:14;;;;;;;1.85;1.75;;;26.00;56.70;;;;;;4992623;28;20177;-53
2023/01/16 08:55:40;;;;;;;1.83;1.70;;;26.50;54.60;;;;;;4992318;28;20169;-53
2023/01/16 08:58:06;;;;;;;1.88;1.60;;;26.90;53.10;;;;;;4992598;28;20196;-54
2023/01/16 09:00:33;;;;;;;2.30;1.67;;;27.40;51.40;;;;;;4993417;28;20173;-53
2023/01/16 09:03:01;;;;;;;2.00;1.80;;;27.80;49.70;;;;;;4992896;28;20165;-53
2023/01/16 09:05:27;;;;;;;1.63;1.42;;;28.20;48.60;;;;;;4992981;28;20165;-55
2023/01/16 09:07:53;;;;;;;2.00;1.83;;;28.80;48.30;;;;;;4993172;28;20184;-53
2023/01/16 09:10:18;;;;;;;2.35;2.10;;;29.30;46.00;;;;;;4992708;28;20181;-53
2023/01/16 09:15:28;;;;;;;3.15;2.85;;;29.90;42.70;;;;;;4992907;28;20605;-54
2023/01/16 09:17:54;;;;;;;2.88;2.65;;;30.10;42.70;;;;;;4993147;28;20177;-55
2023/01/16 09:20:20;;;;;;;1.80;1.70;;;30.10;42.70;;;;;;4993001;28;20216;-52
2023/01/16 09:22:45;;;;;;;1.60;1.50;;;30.40;41.40;;;;;;4993053;28;20201;-53
2023/01/16 09:25:12;;;;;;;2.97;1.33;;;30.60;39.60;;;;;;4992470;28;20287;-53
2023/01/16 09:27:37;;;;;;;1.60;1.17;;;30.20;40.90;;;;;;4992850;28;20201;-55
2023/01/16 09:30:04;;;;;;;1.40;1.30;;;30.40;40.70;;;;;;4992847;28;20177;-51
2023/01/16 09:32:30;;;;;;;1.25;1.15;;;30.90;40.80;;;;;;4992453;28;20170;-52
2023/01/16 09:34:55;;;;;;;1.13;1.02;;;31.60;39.00;;;;;;4992582;28;20618;-54
2023/01/16 09:37:21;;;;;;;0.90;0.85;;;31.70;38.60;;;;;;4992433;28;20634;-54
2023/01/16 09:39:47;;;;;;;1.27;1.08;;;32.00;37.50;;;;;;4992502;28;20173;-55
2023/01/16 09:45:10;;;;;;;0.93;0.93;;;32.10;36.30;;;;;;4992208;28;20239;-55
2023/01/16 09:47:37;;;;;;;0.70;0.70;;;32.10;36.40;;;;;;4992178;28;20176;-53
2023/01/16 09:50:30;;;;;;;0.60;0.60;;;32.70;35.80;;;;;;4992675;28;20531;-54
2023/01/16 09:58:46;;;;;;;0.60;0.60;;;32.30;34.00;;;;;;4992327;28;20212;-54
2023/01/16 10:01:21;;;;;;;0.60;0.60;;;32.40;33.80;;;;;;4992149;28;20578;-54
2023/01/16 10:03:46;;;;;;;1.05;0.68;;;32.60;33.90;;;;;;4991438;28;20235;-55
2023/01/16 10:06:12;;;;;;;0.65;0.65;;;32.60;33.40;;;;;;4992062;28;20209;-51
2023/01/16 10:09:06;;;;;;;1.27;0.70;;;32.70;32.60;;;;;;4992105;28;20228;-51
2023/01/16 10:12:10;;;;;;;0.63;0.63;;;32.50;32.80;;;;;;4992023;28;20169;-51
2023/01/16 10:14:37;;;;;;;1.05;0.75;;;32.70;33.30;;;;;;4991439;28;20192;-55
2023/01/16 10:17:19;;;;;;;0.50;0.50;;;33.30;33.00;;;;;;4991150;28;20220;-52
2023/01/16 10:20:22;;;;;;;1.25;0.55;;;33.90;32.30;;;;;;4991674;28;20184;-52
2023/01/16 10:22:57;;;;;;;0.90;0.90;;;34.30;32.30;;;;;;4991893;28;20200;-55
2023/01/16 10:25:30;;;;;;;0.60;0.60;;;34.50;30.60;;;;;;4991144;28;20250;-52
2023/01/16 10:28:05;;;;;;;0.77;0.77;;;34.60;30.20;;;;;;4991714;28;20172;-53
2023/01/16 10:30:44;;;;;;;0.65;0.65;;;34.00;29.80;;;;;;4991606;28;20172;-50
2023/01/16 10:33:35;;;;;;;0.60;0.60;;;33.90;30.40;;;;;;4991439;28;20175;-53
2023/01/16 10:36:03;;;;;;;0.93;0.70;;;33.90;29.90;;;;;;4991431;28;20709;-53
2023/01/16 10:38:43;;;;;;;0.40;0.40;;;33.70;29.40;;;;;;4991497;28;20188;-52
2023/01/16 10:50:06;;;;;;;0.60;0.60;;;33.20;30.30;;;;;;4991405;28;20183;-49
2023/01/16 10:52:32;;;;;;;0.60;0.60;;;34.40;29.90;;;;;;4990968;28;20191;-53
2023/01/16 10:54:59;;;;;;;0.50;0.50;;;34.90;28.40;;;;;;5006519;23;20714;-60
2023/01/16 10:57:25;;;;;;;0.30;0.30;;;34.40;28.40;;;;;;4990739;28;20256;-60
2023/01/16 10:59:54;;;;;;;0.38;0.38;;;34.30;28.40;;;;;;4991049;28;20208;-60
2023/01/16 11:02:41;;;;;;;0.47;0.47;;;34.10;28.50;;;;;;4991041;28;20687;-60
2023/01/16 11:05:42;;;;;;;0.40;0.40;;;34.00;28.70;;;;;;4989802;28;20557;-58
2023/01/16 11:08:18;;;;;;;0.43;0.43;;;34.60;29.50;;;;;;4950294;29;20236;-60
2023/01/16 11:10:48;;;;;;;0.57;0.57;;;35.30;27.80;;;;;;4949353;29;20226;-60
2023/01/16 11:19:23;;;;;;;0.40;0.40;;;33.30;27.70;;;;;;4953575;29;20674;-55
2023/01/16 11:22:06;;;;;;;0.95;0.55;;;32.00;28.30;;;;;;4954007;29;20214;-56
2023/01/16 11:24:35;;;;;;;0.40;0.40;;;31.10;28.30;;;;;;4952745;29;20656;-57
2023/01/16 11:27:04;;;;;;;1.38;0.60;;;29.30;28.60;;;;;;4953512;29;20258;-57
2023/01/16 11:29:39;;;;;;;0.77;0.77;;;27.20;29.30;;;;;;4952798;28;20194;-55
2023/01/16 11:32:08;;;;;;;1.05;0.95;;;26.20;32.20;;;;;;4953106;28;20313;-57
2023/01/16 11:34:38;;;;;;;0.52;0.52;;;26.50;31.40;;;;;;4953496;29;20241;-56
2023/01/16 11:37:06;;;;;;;0.35;0.35;;;26.40;31.80;;;;;;4953579;29;20553;-56
2023/01/16 11:39:35;;;;;;;5.80;1.35;;;25.20;31.30;;;;;;4953586;29;20294;-57
2023/01/16 11:47:41;;;;;;;1.40;0.80;;;25.10;34.00;;;;;;4994562;28;20200;-58
2023/01/16 11:50:32;;;;;;;0.35;0.35;;;25.60;33.60;;;;;;4994012;28;20177;-58
2023/01/16 11:52:57;;;;;;;0.93;0.50;;;25.70;31.80;;;;;;4994585;28;20184;-59
2023/01/16 11:55:36;;;;;;;0.55;0.55;;;25.40;33.20;;;;;;4994569;28;20217;-55
2023/01/16 11:58:19;;;;;;;0.47;0.47;;;25.40;32.10;;;;;;4994363;28;20831;-55
2023/01/16 12:00:56;;;;;;;0.40;0.40;;;25.80;33.10;;;;;;4994574;28;20177;-54
2023/01/16 12:03:40;;;;;;;1.77;0.40;;;26.30;32.30;;;;;;4994250;28;20207;-55
2023/01/16 12:06:05;;;;;;;0.40;0.40;;;26.70;32.00;;;;;;4994363;28;20205;-55
2023/01/16 12:08:58;;;;;;;0.30;0.30;;;27.10;31.80;;;;;;4994380;28;20685;-54
2023/01/16 12:11:38;;;;;;;0.40;0.40;;;27.00;31.50;;;;;;4990241;28;20216;-54
2023/01/16 12:14:28;;;;;;;0.43;0.40;;;26.30;31.10;;;;;;4993867;28;20200;-59
2023/01/16 12:17:21;;;;;;;0.50;0.50;;;26.20;32.50;;;;;;4993159;28;20181;-55
2023/01/16 12:20:19;;;;;;;0.40;0.40;;;26.30;32.70;;;;;;4993700;28;20356;-57
2023/01/16 12:22:53;;;;;;;0.30;0.30;;;26.40;32.30;;;;;;4952607;29;20222;-56
2023/01/16 12:25:24;;;;;;;0.73;0.45;;;25.90;32.40;;;;;;4952524;29;20207;-55
2023/01/16 12:28:27;;;;;;;0.55;0.50;;;26.00;33.40;;;;;;4953077;29;20410;-54
2023/01/16 12:31:31;;;;;;;0.40;0.40;;;25.50;32.70;;;;;;4952932;29;20216;-56
2023/01/16 12:34:18;;;;;;;0.40;0.40;;;25.30;33.00;;;;;;4952439;29;20210;-57
2023/01/16 12:37:12;;;;;;;0.32;0.32;;;24.80;32.60;;;;;;4952757;29;20593;-56
2023/01/16 12:39:59;;;;;;;0.50;0.50;;;24.30;34.40;;;;;;4952993;29;20215;-56
2023/01/16 12:43:21;;;;;;;0.50;0.50;;;24.60;33.60;;;;;;4952443;29;20719;-52
2023/01/16 12:45:56;;;;;;;0.40;0.40;;;23.60;34.30;;;;;;4952301;29;20242;-55
2023/01/16 12:48:42;;;;;;;1.52;1.05;;;23.50;34.00;;;;;;4952457;29;20612;-54
2023/01/16 12:51:14;;;;;;;0.75;0.40;;;23.10;35.50;;;;;;4952651;29;20269;-55
2023/01/16 12:53:49;;;;;;;0.77;0.50;;;23.10;35.50;;;;;;4952104;29;20182;-54
2023/01/16 12:56:36;;;;;;;0.50;0.50;;;23.30;34.70;;;;;;4952587;29;20702;-56
2023/01/16 12:59:29;;;;;;;0.50;0.50;;;22.80;35.80;;;;;;4983903;28;20186;-54
2023/01/16 13:02:11;;;;;;;0.30;0.30;;;23.00;35.80;;;;;;4993522;28;20205;-56
2023/01/16 13:05:12;;;;;;;0.55;0.55;;;23.50;35.60;;;;;;4992307;28;20193;-55
2023/01/16 13:08:06;;;;;;;1.45;0.60;;;23.60;34.30;;;;;;4952401;29;20690;-55
2023/01/16 13:13:28;;;;;;;0.40;0.40;;;22.90;35.60;;;;;;4952387;28;20687;-52
2023/01/16 13:15:59;;;;;;;0.47;0.47;;;22.60;36.10;;;;;;4951649;29;20719;-55
2023/01/16 13:18:38;;;;;;;0.50;0.50;;;22.20;36.20;;;;;;4952287;29;20273;-53
2023/01/16 13:21:08;;;;;;;1.00;0.45;;;21.50;37.10;;;;;;4951860;29;20209;-54
2023/01/16 13:23:42;;;;;;;0.50;0.50;;;21.00;37.40;;;;;;4951980;29;20175;-56
2023/01/16 13:26:14;;;;;;;1.10;0.85;;;20.70;38.00;;;;;;4951456;29;20203;-54
2023/01/16 13:29:15;;;;;;;0.98;0.50;;;20.40;37.30;;;;;;4952203;29;20170;-52
2023/01/16 13:31:48;;;;;;;0.98;0.63;;;19.90;38.50;;;;;;4951773;29;20190;-57
2023/01/16 13:34:28;;;;;;;0.50;0.50;;;19.50;39.10;;;;;;4951559;29;20791;-55
2023/01/16 13:37:03;;;;;;;0.77;0.77;;;19.40;39.30;;;;;;4951567;29;20281;-52
2023/01/16 13:39:49;;;;;;;1.38;0.65;;;19.20;39.70;;;;;;4951976;28;20647;-57
2023/01/16 13:42:17;;;;;;;0.65;0.65;;;19.20;40.00;;;;;;4951418;29;20212;-56
2023/01/16 13:47:39;;;;;;;0.80;0.60;;;18.70;41.10;;;;;;4992780;28;20679;-56
2023/01/16 13:50:24;;;;;;;0.50;0.50;;;18.90;41.70;;;;;;4992033;28;20168;-53
2023/01/16 13:52:59;;;;;;;0.63;0.50;;;19.30;40.70;;;;;;4992542;28;20247;-53
2023/01/16 13:55:30;;;;;;;1.38;0.70;;;19.40;40.40;;;;;;4992075;28;20212;-56
2023/01/16 13:58:06;;;;;;;1.45;0.70;;;19.60;40.70;;;;;;4992565;28;20237;-51
2023/01/16 14:00:33;;;;;;;1.77;0.60;;;20.00;40.30;;;;;;4992459;28;20181;-54
2023/01/16 14:03:22;;;;;;;0.60;0.60;;;20.40;40.00;;;;;;4991533;28;20204;-53
2023/01/16 14:06:15;;;;;;;0.60;0.60;;;20.40;38.70;;;;;;4991857;28;20220;-52
2023/01/16 14:09:04;;;;;;;0.60;0.60;;;20.20;39.50;;;;;;4992171;28;20179;-56
2023/01/16 14:11:41;;;;;;;1.02;0.80;;;19.70;39.70;;;;;;4992102;28;20182;-51
2023/01/16 14:17:54;;;;;;;2.40;0.60;;;19.10;40.70;;;;;;4985982;28;20728;-51
2023/01/16 14:20:43;;;;;;;0.60;0.60;;;18.80;41.10;;;;;;4992013;28;20256;-55
2023/01/16 14:26:06;;;;;;;0.60;0.60;;;18.20;41.60;;;;;;4992119;28;20606;-56